Time;durP1;ratioP1;P1;durP2;ratioP2;P2;SDS_P1;SDS_P2;PMS_P1;PMS_P2;Temp;Humidity;BMP_temperature;BMP_pressure;BME280_temperature;BME280_humidity;BME280_pressure;Samples;Min_cycle;Max_cycle;Signal;HPM_P1;HPM_P2
2023/09/28 00:01:18;;;;;;;9.55;5.95;;;;;;;;;;4878445;29;20044;-78
2023/09/28 00:04:06;;;;;;;13.63;7.03;;;;;;;;;;4878145;29;20049;-78
2023/09/28 00:06:51;;;;;;;8.93;6.38;;;;;;;;;;4878203;29;20489;-78
2023/09/28 00:09:37;;;;;;;10.55;6.30;;;;;;;;;;4883852;29;20523;-77
2023/09/28 00:12:22;;;;;;;13.27;7.18;;;;;;;;;;4877408;29;20470;-79
2023/09/28 00:15:10;;;;;;;13.07;6.65;;;;;;;;;;4877535;29;20460;-77
2023/09/28 00:17:55;;;;;;;12.10;6.68;;;;;;;;;;4876988;29;20404;-79
2023/09/28 00:20:41;;;;;;;8.35;6.10;;;;;;;;;;4869754;29;20057;-79
2023/09/28 00:23:27;;;;;;;12.85;5.97;;;;;;;;;;4883078;29;20049;-79
2023/09/28 00:26:12;;;;;;;11.68;6.57;;;;;;;;;;4869064;29;20392;-79
2023/09/28 00:29:00;;;;;;;11.70;7.00;;;;;;;;;;4871538;29;20049;-79
2023/09/28 00:31:45;;;;;;;17.10;7.18;;;;;;;;;;4864618;29;20476;-78
2023/09/28 00:34:31;;;;;;;9.13;6.70;;;;;;;;;;4853489;29;20079;-80
2023/09/28 00:37:17;;;;;;;10.95;5.97;;;;;;;;;;4859500;29;20405;-78
2023/09/28 00:43:04;;;;;;;9.38;6.32;;;;;;;;;;4854023;29;20045;-78
2023/09/28 00:45:49;;;;;;;10.80;6.20;;;;;;;;;;4859108;29;20074;-78
2023/09/28 00:48:54;;;;;;;10.75;6.10;;;;;;;;;;4853976;29;20488;-79
2023/09/28 00:51:39;;;;;;;12.13;6.88;;;;;;;;;;4859229;29;20404;-78
2023/09/28 00:54:25;;;;;;;7.65;6.25;;;;;;;;;;4852400;29;20053;-78
2023/09/28 00:57:11;;;;;;;11.50;6.32;;;;;;;;;;4852969;29;20497;-77
2023/09/28 00:59:57;;;;;;;13.20;6.28;;;;;;;;;;4871142;29;20481;-77
2023/09/28 01:02:43;;;;;;;14.60;6.07;;;;;;;;;;4853658;29;20044;-78
2023/09/28 01:05:39;;;;;;;13.45;6.25;;;;;;;;;;4871602;29;20357;-77
2023/09/28 01:08:25;;;;;;;9.55;5.90;;;;;;;;;;4865558;29;20049;-78
2023/09/28 01:11:10;;;;;;;16.10;6.10;;;;;;;;;;4857955;29;20690;-77
2023/09/28 01:13:57;;;;;;;8.95;5.90;;;;;;;;;;4871375;29;20477;-79
2023/09/28 01:16:43;;;;;;;10.07;5.95;;;;;;;;;;4852724;29;20049;-77
2023/09/28 01:19:29;;;;;;;10.57;6.20;;;;;;;;;;4864927;29;20469;-78
2023/09/28 01:22:15;;;;;;;11.48;5.80;;;;;;;;;;4865141;29;20393;-78
2023/09/28 01:25:00;;;;;;;8.57;6.10;;;;;;;;;;4871433;29;20413;-78
2023/09/28 01:27:46;;;;;;;14.90;6.07;;;;;;;;;;4858919;29;20405;-77
2023/09/28 01:30:32;;;;;;;12.60;5.97;;;;;;;;;;4853584;29;20425;-80
2023/09/28 01:33:17;;;;;;;9.82;6.15;;;;;;;;;;4858289;29;20060;-78
2023/09/28 01:36:03;;;;;;;13.40;7.88;;;;;;;;;;4877095;29;20367;-80
2023/09/28 01:38:56;;;;;;;13.35;7.63;;;;;;;;;;4869285;29;20403;-78
2023/09/28 01:41:42;;;;;;;30.50;15.43;;;;;;;;;;4871723;29;20036;-79
2023/09/28 01:44:29;;;;;;;23.27;13.65;;;;;;;;;;4876628;29;20752;-78
2023/09/28 01:47:15;;;;;;;18.30;12.15;;;;;;;;;;4871143;29;20044;-78
2023/09/28 01:50:01;;;;;;;18.45;11.00;;;;;;;;;;4869713;29;20408;-78
2023/09/28 01:52:46;;;;;;;16.13;11.23;;;;;;;;;;4863265;29;20354;-78
2023/09/28 01:55:31;;;;;;;32.03;20.95;;;;;;;;;;4856475;29;20048;-78
2023/09/28 01:58:18;;;;;;;36.10;20.35;;;;;;;;;;4869932;29;20052;-79
2023/09/28 02:01:03;;;;;;;46.83;27.67;;;;;;;;;;4870100;29;20045;-79
2023/09/28 02:03:50;;;;;;;46.67;27.90;;;;;;;;;;4871364;29;20048;-79
2023/09/28 02:06:36;;;;;;;26.75;14.73;;;;;;;;;;4876808;29;20048;-78
2023/09/28 02:09:22;;;;;;;29.08;13.98;;;;;;;;;;4875556;29;20400;-79
2023/09/28 02:12:07;;;;;;;16.58;10.82;;;;;;;;;;4871177;29;20404;-77
2023/09/28 02:14:54;;;;;;;18.73;11.07;;;;;;;;;;4862693;29;20036;-79
2023/09/28 02:17:42;;;;;;;22.67;10.68;;;;;;;;;;4876030;29;20413;-78
2023/09/28 02:20:28;;;;;;;12.70;8.52;;;;;;;;;;4869318;29;20476;-79
2023/09/28 02:23:15;;;;;;;18.42;8.55;;;;;;;;;;4877205;29;20048;-78
2023/09/28 02:26:07;;;;;;;12.18;7.85;;;;;;;;;;4876292;29;20644;-79
2023/09/28 02:28:53;;;;;;;15.77;8.13;;;;;;;;;;4875544;29;20393;-79
2023/09/28 02:31:42;;;;;;;16.67;7.47;;;;;;;;;;4870971;29;20044;-79
2023/09/28 02:34:27;;;;;;;11.38;7.20;;;;;;;;;;4857830;29;20048;-78
2023/09/28 02:37:12;;;;;;;11.77;7.68;;;;;;;;;;4870831;29;20436;-78
2023/09/28 02:39:57;;;;;;;9.35;7.40;;;;;;;;;;4875435;29;20048;-79
2023/09/28 02:42:43;;;;;;;12.27;7.25;;;;;;;;;;4870840;29;20480;-77
2023/09/28 02:45:29;;;;;;;13.00;7.57;;;;;;;;;;4861871;29;20041;-79
2023/09/28 02:48:14;;;;;;;10.20;6.53;;;;;;;;;;4876555;29;20048;-79
2023/09/28 02:51:03;;;;;;;12.57;7.13;;;;;;;;;;4875096;29;20045;-77
2023/09/28 02:53:48;;;;;;;10.55;6.72;;;;;;;;;;4870306;29;20048;-77
2023/09/28 02:56:34;;;;;;;11.43;7.10;;;;;;;;;;4874605;29;20480;-78
2023/09/28 02:59:22;;;;;;;9.73;6.40;;;;;;;;;;4862338;29;20463;-77
2023/09/28 03:02:08;;;;;;;8.73;6.35;;;;;;;;;;4870406;29;20052;-79
2023/09/28 03:04:53;;;;;;;10.55;6.60;;;;;;;;;;4877035;29;20249;-79
2023/09/28 03:07:39;;;;;;;9.57;6.60;;;;;;;;;;4870406;29;20044;-79
2023/09/28 03:10:24;;;;;;;8.50;6.43;;;;;;;;;;4870551;29;20049;-80
2023/09/28 03:13:13;;;;;;;11.88;6.50;;;;;;;;;;4861203;29;20048;-77
2023/09/28 03:15:59;;;;;;;13.57;7.18;;;;;;;;;;4869264;29;20045;-78
2023/09/28 03:18:44;;;;;;;18.58;7.25;;;;;;;;;;4870024;29;20465;-79
2023/09/28 03:21:30;;;;;;;11.43;7.05;;;;;;;;;;4879190;29;20044;-78
2023/09/28 03:24:16;;;;;;;11.88;7.10;;;;;;;;;;4874524;29;20044;-79
2023/09/28 03:27:01;;;;;;;17.15;7.00;;;;;;;;;;4878704;29;20052;-77
2023/09/28 03:29:45;;;;;;;9.63;6.95;;;;;;;;;;4880091;29;20489;-78
2023/09/28 03:32:31;;;;;;;14.35;7.40;;;;;;;;;;4872247;29;20049;-77
2023/09/28 03:35:17;;;;;;;13.18;6.63;;;;;;;;;;4879133;29;20402;-78
2023/09/28 03:38:03;;;;;;;15.52;7.25;;;;;;;;;;4872601;29;20052;-79
2023/09/28 03:40:49;;;;;;;15.30;6.75;;;;;;;;;;4880123;29;20787;-79
2023/09/28 03:43:35;;;;;;;17.88;7.85;;;;;;;;;;4880319;29;20048;-78
2023/09/28 03:46:20;;;;;;;9.50;6.47;;;;;;;;;;4871999;29;20400;-78
2023/09/28 03:49:06;;;;;;;11.07;6.28;;;;;;;;;;4877609;29;20404;-78
2023/09/28 03:51:51;;;;;;;10.45;6.50;;;;;;;;;;4871835;29;20045;-79
2023/09/28 03:58:25;;;;;;;11.15;6.90;;;;;;;;;;4877050;29;20403;-78
2023/09/28 04:01:11;;;;;;;11.25;7.18;;;;;;;;;;4880781;29;20045;-78
2023/09/28 04:03:56;;;;;;;11.18;7.05;;;;;;;;;;4875064;29;20048;-78
2023/09/28 04:06:42;;;;;;;15.13;7.10;;;;;;;;;;4881116;29;20404;-78
2023/09/28 04:09:28;;;;;;;13.73;7.50;;;;;;;;;;4883175;29;20049;-78
2023/09/28 04:12:13;;;;;;;12.90;7.70;;;;;;;;;;4875725;29;20049;-78
2023/09/28 04:14:58;;;;;;;12.77;7.68;;;;;;;;;;4883320;29;20048;-78
2023/09/28 04:17:43;;;;;;;13.63;7.60;;;;;;;;;;4882764;29;20040;-78
2023/09/28 04:20:29;;;;;;;12.23;7.57;;;;;;;;;;4877538;29;20464;-78
2023/09/28 04:23:14;;;;;;;11.55;7.10;;;;;;;;;;4876674;29;20399;-78
2023/09/28 04:26:00;;;;;;;16.40;8.05;;;;;;;;;;4883373;29;20056;-77
2023/09/28 04:28:45;;;;;;;10.27;7.25;;;;;;;;;;4875347;29;20045;-77
2023/09/28 04:31:30;;;;;;;16.60;7.53;;;;;;;;;;4882530;29;20040;-80
2023/09/28 04:34:16;;;;;;;13.20;7.97;;;;;;;;;;4877545;29;20048;-78
2023/09/28 04:37:03;;;;;;;11.05;7.68;;;;;;;;;;4882685;29;20049;-80
2023/09/28 04:39:48;;;;;;;17.23;7.60;;;;;;;;;;4876665;29;20472;-78
2023/09/28 04:42:34;;;;;;;12.95;8.18;;;;;;;;;;4882783;29;20472;-78
2023/09/28 04:45:19;;;;;;;18.33;8.25;;;;;;;;;;4856337;29;20049;-79
2023/09/28 04:48:06;;;;;;;19.42;8.05;;;;;;;;;;4875473;29;20396;-79
2023/09/28 04:50:52;;;;;;;11.27;8.02;;;;;;;;;;4867441;29;20056;-78
2023/09/28 04:53:38;;;;;;;12.05;8.00;;;;;;;;;;4876525;29;20464;-79
2023/09/28 04:56:24;;;;;;;14.45;7.97;;;;;;;;;;4876441;29;20404;-78
2023/09/28 04:59:10;;;;;;;13.80;7.95;;;;;;;;;;4883107;29;20049;-78
2023/09/28 05:01:55;;;;;;;11.65;7.22;;;;;;;;;;4882278;29;20044;-78
2023/09/28 05:04:41;;;;;;;12.50;7.57;;;;;;;;;;4875785;29;20044;-77
2023/09/28 05:07:26;;;;;;;11.20;7.22;;;;;;;;;;4861995;29;20041;-77
2023/09/28 05:10:11;;;;;;;10.40;6.78;;;;;;;;;;4882398;29;20465;-77
2023/09/28 05:12:58;;;;;;;11.65;7.30;;;;;;;;;;4876404;29;20052;-79
2023/09/28 05:15:44;;;;;;;12.48;6.00;;;;;;;;;;4881998;29;20045;-79
2023/09/28 05:18:29;;;;;;;8.98;5.70;;;;;;;;;;4875644;29;20678;-79
2023/09/28 05:21:15;;;;;;;11.55;5.22;;;;;;;;;;4876217;29;20380;-81
2023/09/28 05:24:00;;;;;;;8.18;4.97;;;;;;;;;;4861678;29;20045;-79
2023/09/28 05:26:45;;;;;;;8.65;5.07;;;;;;;;;;4881544;29;20104;-80
2023/09/28 05:29:30;;;;;;;12.73;5.07;;;;;;;;;;4867451;29;20045;-79
2023/09/28 05:32:15;;;;;;;11.50;5.50;;;;;;;;;;4875967;29;20115;-80
2023/09/28 05:35:00;;;;;;;13.65;6.65;;;;;;;;;;4875853;29;20456;-81
2023/09/28 05:37:46;;;;;;;21.02;7.85;;;;;;;;;;4881659;29;20052;-79
2023/09/28 05:40:32;;;;;;;21.52;7.20;;;;;;;;;;4881865;29;20404;-80
2023/09/28 05:43:17;;;;;;;17.67;6.80;;;;;;;;;;4880787;29;20052;-80
2023/09/28 05:46:04;;;;;;;15.80;6.68;;;;;;;;;;4881885;29;20048;-81
2023/09/28 05:48:49;;;;;;;21.70;7.50;;;;;;;;;;4875719;29;20412;-80
2023/09/28 05:51:34;;;;;;;13.57;7.38;;;;;;;;;;4875650;29;20049;-80
2023/09/28 05:54:20;;;;;;;13.43;6.47;;;;;;;;;;4883498;29;20056;-80
2023/09/28 05:57:05;;;;;;;10.82;6.20;;;;;;;;;;4879737;29;20040;-80
2023/09/28 05:59:51;;;;;;;15.73;6.93;;;;;;;;;;4880034;29;20040;-80
2023/09/28 06:02:37;;;;;;;15.43;7.28;;;;;;;;;;4879372;29;20045;-81
2023/09/28 06:05:22;;;;;;;18.25;7.32;;;;;;;;;;4878530;29;20052;-82
2023/09/28 06:08:08;;;;;;;14.18;8.15;;;;;;;;;;4886211;29;20049;-81
2023/09/28 06:10:53;;;;;;;13.10;8.18;;;;;;;;;;4879642;29;20041;-80
2023/09/28 06:13:41;;;;;;;16.52;9.25;;;;;;;;;;4877260;29;20040;-80
2023/09/28 06:16:25;;;;;;;15.50;9.35;;;;;;;;;;4872335;29;20044;-81
2023/09/28 06:19:14;;;;;;;14.98;9.20;;;;;;;;;;4874250;29;20048;-81
2023/09/28 06:21:59;;;;;;;15.45;8.68;;;;;;;;;;4874750;29;20481;-82
2023/09/28 06:24:44;;;;;;;16.17;8.23;;;;;;;;;;4881521;29;20044;-82
2023/09/28 06:27:30;;;;;;;16.45;8.95;;;;;;;;;;4878967;29;20459;-83
2023/09/28 06:30:15;;;;;;;17.13;9.93;;;;;;;;;;4869279;29;20388;-81
2023/09/28 06:33:02;;;;;;;16.88;8.57;;;;;;;;;;4873294;29;20048;-82
2023/09/28 06:35:48;;;;;;;15.52;8.68;;;;;;;;;;4874972;29;20389;-82
2023/09/28 06:38:33;;;;;;;22.20;10.45;;;;;;;;;;4868803;29;20048;-81
2023/09/28 06:41:19;;;;;;;15.85;9.02;;;;;;;;;;4870050;29;20056;-82
2023/09/28 06:44:04;;;;;;;18.90;9.63;;;;;;;;;;4876523;29;20048;-82
2023/09/28 06:46:50;;;;;;;19.15;8.88;;;;;;;;;;4862463;29;20508;-81
2023/09/28 06:49:36;;;;;;;20.15;9.30;;;;;;;;;;4868223;29;20041;-83
2023/09/28 06:52:21;;;;;;;20.55;7.97;;;;;;;;;;4875664;29;20420;-82
2023/09/28 06:55:07;;;;;;;15.98;8.32;;;;;;;;;;4875017;29;20049;-82
2023/09/28 06:57:52;;;;;;;13.95;8.18;;;;;;;;;;4861649;29;20052;-82
2023/09/28 07:00:38;;;;;;;22.13;8.75;;;;;;;;;;4873346;29;20441;-81
2023/09/28 07:03:23;;;;;;;19.50;8.85;;;;;;;;;;4874513;29;20412;-83
2023/09/28 07:06:09;;;;;;;21.35;9.45;;;;;;;;;;4870311;29;20457;-83
2023/09/28 07:08:53;;;;;;;17.58;9.15;;;;;;;;;;4854609;29;20040;-82
2023/09/28 07:11:39;;;;;;;21.05;9.13;;;;;;;;;;4867652;29;20045;-82
2023/09/28 07:14:25;;;;;;;14.38;8.63;;;;;;;;;;4873839;29;20048;-83
2023/09/28 07:17:11;;;;;;;14.27;8.70;;;;;;;;;;4866834;29;20409;-81
2023/09/28 07:19:56;;;;;;;22.20;9.15;;;;;;;;;;4867660;29;20062;-83
2023/09/28 07:22:42;;;;;;;21.00;8.85;;;;;;;;;;4867510;29;20545;-81
2023/09/28 07:25:27;;;;;;;23.63;11.13;;;;;;;;;;4873072;29;20040;-82
2023/09/28 07:28:13;;;;;;;12.88;8.80;;;;;;;;;;4873924;29;20041;-82
2023/09/28 07:30:58;;;;;;;20.67;8.90;;;;;;;;;;4872142;29;20484;-82
2023/09/28 07:33:44;;;;;;;12.55;7.38;;;;;;;;;;4872122;29;20049;-80
2023/09/28 07:36:30;;;;;;;12.05;7.93;;;;;;;;;;4869569;29;20108;-80
2023/09/28 07:39:15;;;;;;;17.00;7.57;;;;;;;;;;4873996;29;20488;-81
2023/09/28 07:42:05;;;;;;;19.35;8.07;;;;;;;;;;4867905;29;20052;-80
2023/09/28 07:44:51;;;;;;;13.32;6.53;;;;;;;;;;4874852;29;20056;-82
2023/09/28 07:47:40;;;;;;;20.52;6.35;;;;;;;;;;4874605;29;20048;-81
2023/09/28 07:50:25;;;;;;;11.00;6.15;;;;;;;;;;4877323;29;20049;-81
2023/09/28 07:53:11;;;;;;;14.95;5.82;;;;;;;;;;4867152;29;20477;-81
2023/09/28 07:55:57;;;;;;;9.60;5.40;;;;;;;;;;4868830;29;20420;-80
2023/09/28 07:58:42;;;;;;;15.82;5.70;;;;;;;;;;4867097;29;20057;-82
2023/09/28 08:01:28;;;;;;;8.07;5.05;;;;;;;;;;4869314;29;20044;-82
2023/09/28 08:04:13;;;;;;;13.02;6.22;;;;;;;;;;4860801;29;20045;-82
2023/09/28 08:06:59;;;;;;;11.82;5.43;;;;;;;;;;4857275;29;20052;-81
2023/09/28 08:09:45;;;;;;;15.32;5.15;;;;;;;;;;4877393;29;20044;-79
2023/09/28 08:12:30;;;;;;;13.63;5.55;;;;;;;;;;4873777;29;20048;-80
2023/09/28 08:15:16;;;;;;;14.02;5.72;;;;;;;;;;4879839;29;20048;-79
2023/09/28 08:18:02;;;;;;;14.45;5.95;;;;;;;;;;4871930;29;20393;-81
2023/09/28 08:20:47;;;;;;;12.02;6.32;;;;;;;;;;4877732;29;20044;-81
2023/09/28 08:23:32;;;;;;;15.30;6.50;;;;;;;;;;4877507;29;20048;-80
2023/09/28 08:26:18;;;;;;;16.95;7.47;;;;;;;;;;4871375;29;20052;-80
2023/09/28 08:29:05;;;;;;;19.23;8.48;;;;;;;;;;4879085;29;20048;-80
2023/09/28 08:31:51;;;;;;;13.80;7.68;;;;;;;;;;4879191;29;20412;-80
2023/09/28 08:34:36;;;;;;;16.88;8.27;;;;;;;;;;4865637;29;20052;-79
2023/09/28 08:37:23;;;;;;;20.85;7.55;;;;;;;;;;4878073;29;20052;-79
2023/09/28 08:40:09;;;;;;;21.63;10.07;;;;;;;;;;4878588;29;20048;-80
2023/09/28 08:42:57;;;;;;;20.00;6.60;;;;;;;;;;4877831;29;20089;-78
2023/09/28 08:45:44;;;;;;;12.57;5.55;;;;;;;;;;4872904;29;20053;-80
2023/09/28 08:48:32;;;;;;;18.98;6.40;;;;;;;;;;4878097;29;20414;-80
2023/09/28 08:51:18;;;;;;;12.93;6.20;;;;;;;;;;4872354;29;20412;-79
2023/09/28 08:54:07;;;;;;;14.63;6.45;;;;;;;;;;4878320;29;20036;-80
2023/09/28 08:56:54;;;;;;;10.45;5.15;;;;;;;;;;4878528;29;20052;-80
2023/09/28 08:59:40;;;;;;;16.10;8.05;;;;;;;;;;4878488;29;20064;-79
2023/09/28 09:02:28;;;;;;;12.50;6.20;;;;;;;;;;4864344;29;20052;-79
2023/09/28 09:05:14;;;;;;;10.32;5.38;;;;;;;;;;4878742;29;20056;-79
2023/09/28 09:08:00;;;;;;;10.20;5.70;;;;;;;;;;4871748;29;20060;-80
2023/09/28 09:10:46;;;;;;;13.05;5.60;;;;;;;;;;4871315;29;20044;-79
2023/09/28 09:13:33;;;;;;;12.23;5.63;;;;;;;;;;4878514;29;20048;-80
2023/09/28 09:16:22;;;;;;;14.57;5.82;;;;;;;;;;4877524;29;20408;-80
2023/09/28 09:19:11;;;;;;;13.38;5.22;;;;;;;;;;4871596;29;20052;-79
2023/09/28 09:21:58;;;;;;;10.93;5.43;;;;;;;;;;4878238;29;20045;-80
2023/09/28 09:24:54;;;;;;;13.00;5.10;;;;;;;;;;4876772;29;20048;-79
2023/09/28 09:27:40;;;;;;;11.60;4.97;;;;;;;;;;4879074;29;20447;-80
2023/09/28 09:30:28;;;;;;;11.02;5.22;;;;;;;;;;4878046;29;20532;-79
2023/09/28 09:33:14;;;;;;;14.77;5.53;;;;;;;;;;4874986;29;20416;-80
2023/09/28 09:35:59;;;;;;;15.25;5.40;;;;;;;;;;4880577;29;20045;-79
2023/09/28 09:38:45;;;;;;;12.48;5.18;;;;;;;;;;4878071;29;20052;-80
2023/09/28 09:41:43;;;;;;;20.85;6.10;;;;;;;;;;4871545;29;20385;-80
2023/09/28 09:44:28;;;;;;;12.52;5.75;;;;;;;;;;4870799;29;20057;-80
2023/09/28 09:47:14;;;;;;;11.80;5.22;;;;;;;;;;4877459;29;20480;-81
2023/09/28 09:50:01;;;;;;;10.20;4.30;;;;;;;;;;4871216;29;20052;-81
2023/09/28 09:52:46;;;;;;;12.85;4.47;;;;;;;;;;4877098;29;20060;-79
2023/09/28 09:55:33;;;;;;;13.40;4.25;;;;;;;;;;4877365;29;20468;-82
2023/09/28 09:58:22;;;;;;;7.43;3.80;;;;;;;;;;4871174;29;20053;-80
2023/09/28 10:01:12;;;;;;;13.23;4.88;;;;;;;;;;4878044;29;20757;-81
2023/09/28 10:04:04;;;;;;;11.82;4.47;;;;;;;;;;4871642;29;20044;-81
2023/09/28 10:06:51;;;;;;;10.30;4.88;;;;;;;;;;4876748;29;20060;-81
2023/09/28 10:09:38;;;;;;;9.73;4.07;;;;;;;;;;4870764;29;20052;-80
2023/09/28 10:12:25;;;;;;;8.00;4.45;;;;;;;;;;4870269;29;20397;-80
2023/09/28 10:15:13;;;;;;;14.27;4.80;;;;;;;;;;4876804;29;20465;-81
2023/09/28 10:17:58;;;;;;;12.88;4.07;;;;;;;;;;4876617;29;20053;-81
2023/09/28 10:20:44;;;;;;;12.20;4.22;;;;;;;;;;4877715;29;20044;-81
2023/09/28 10:23:31;;;;;;;13.27;4.25;;;;;;;;;;4871376;29;20037;-81
2023/09/28 10:26:18;;;;;;;8.77;3.95;;;;;;;;;;4871529;29;20488;-81
2023/09/28 10:29:09;;;;;;;12.10;3.88;;;;;;;;;;4870593;29;20045;-81
2023/09/28 10:31:55;;;;;;;9.07;3.55;;;;;;;;;;4877457;29;20490;-81
2023/09/28 10:34:43;;;;;;;8.90;3.78;;;;;;;;;;4871442;29;20049;-81
2023/09/28 10:37:31;;;;;;;11.18;3.83;;;;;;;;;;4870005;29;20036;-81
2023/09/28 10:40:18;;;;;;;8.55;3.25;;;;;;;;;;4871003;29;20040;-80
2023/09/28 10:43:09;;;;;;;8.98;2.92;;;;;;;;;;4870924;29;20461;-80
2023/09/28 10:45:57;;;;;;;11.82;3.33;;;;;;;;;;4877201;29;20044;-81
2023/09/28 10:48:44;;;;;;;6.47;2.90;;;;;;;;;;4876949;29;20053;-79
2023/09/28 10:51:30;;;;;;;14.77;2.70;;;;;;;;;;4870270;29;20397;-81
2023/09/28 10:54:16;;;;;;;12.02;3.10;;;;;;;;;;4870489;29;20456;-81
2023/09/28 10:57:04;;;;;;;7.13;2.80;;;;;;;;;;4870982;29;20056;-81
2023/09/28 10:59:51;;;;;;;5.18;2.53;;;;;;;;;;4876792;29;20048;-81
2023/09/28 11:02:37;;;;;;;5.80;2.80;;;;;;;;;;4877088;29;20437;-81
2023/09/28 11:05:22;;;;;;;8.93;2.80;;;;;;;;;;4877974;29;20048;-81
2023/09/28 11:08:08;;;;;;;5.25;2.80;;;;;;;;;;4879085;29;20493;-80
2023/09/28 11:10:55;;;;;;;8.63;2.60;;;;;;;;;;4880500;29;20404;-81
2023/09/28 11:13:41;;;;;;;11.75;2.67;;;;;;;;;;4874489;29;20048;-81
2023/09/28 11:16:27;;;;;;;9.73;2.53;;;;;;;;;;4881125;29;20416;-80
2023/09/28 11:19:13;;;;;;;5.35;2.95;;;;;;;;;;4874831;29;20404;-80
2023/09/28 11:21:58;;;;;;;4.15;2.17;;;;;;;;;;4872275;29;20044;-81
2023/09/28 11:24:45;;;;;;;5.55;2.30;;;;;;;;;;4873931;29;20048;-79
2023/09/28 11:27:31;;;;;;;6.82;2.67;;;;;;;;;;4873540;29;20397;-81
2023/09/28 11:30:19;;;;;;;10.73;2.70;;;;;;;;;;4878321;29;20472;-80
2023/09/28 11:33:06;;;;;;;9.73;2.50;;;;;;;;;;4870693;29;20411;-80
2023/09/28 11:35:51;;;;;;;13.20;2.95;;;;;;;;;;4873741;29;20060;-80
2023/09/28 11:38:39;;;;;;;8.13;2.50;;;;;;;;;;4875725;29;20044;-80
2023/09/28 11:41:26;;;;;;;6.50;2.60;;;;;;;;;;4876299;29;20416;-80
2023/09/28 11:44:19;;;;;;;7.88;2.80;;;;;;;;;;4884791;29;20048;-80
2023/09/28 11:47:05;;;;;;;7.78;2.60;;;;;;;;;;4871212;29;20395;-81
2023/09/28 11:49:51;;;;;;;9.60;3.20;;;;;;;;;;4883925;29;20044;-80
2023/09/28 11:52:37;;;;;;;9.27;2.83;;;;;;;;;;4885073;29;20416;-80
2023/09/28 11:55:23;;;;;;;8.02;2.50;;;;;;;;;;4884497;29;20056;-80
2023/09/28 11:58:17;;;;;;;9.63;2.85;;;;;;;;;;4884497;29;20040;-80
2023/09/28 12:01:03;;;;;;;9.43;2.90;;;;;;;;;;4884682;29;20036;-79
2023/09/28 12:03:48;;;;;;;9.63;2.60;;;;;;;;;;4871961;29;20049;-80
2023/09/28 12:06:34;;;;;;;9.77;2.50;;;;;;;;;;4879093;29;20484;-79
2023/09/28 12:09:20;;;;;;;5.82;2.05;;;;;;;;;;4878831;29;20412;-80
2023/09/28 12:12:05;;;;;;;7.88;2.60;;;;;;;;;;4872626;29;20052;-80
2023/09/28 12:14:51;;;;;;;4.68;2.70;;;;;;;;;;4879657;29;20511;-80
2023/09/28 12:17:41;;;;;;;9.05;2.60;;;;;;;;;;4878868;29;20456;-79
2023/09/28 12:20:27;;;;;;;10.55;2.50;;;;;;;;;;4879128;29;20060;-81
2023/09/28 12:23:13;;;;;;;8.30;2.50;;;;;;;;;;4865092;29;20060;-79
2023/09/28 12:26:01;;;;;;;6.60;2.60;;;;;;;;;;4878860;29;20041;-80
2023/09/28 12:28:47;;;;;;;10.35;2.67;;;;;;;;;;4872842;29;20040;-80
2023/09/28 12:31:35;;;;;;;6.18;1.70;;;;;;;;;;4872619;29;20045;-81
2023/09/28 12:34:21;;;;;;;4.05;1.50;;;;;;;;;;4874045;29;20468;-81
2023/09/28 12:37:07;;;;;;;6.45;1.27;;;;;;;;;;4879190;29;20049;-81
2023/09/28 12:39:53;;;;;;;3.53;1.70;;;;;;;;;;4879362;29;20048;-81
2023/09/28 12:42:40;;;;;;;5.57;1.35;;;;;;;;;;4878818;29;20480;-80
2023/09/28 12:45:27;;;;;;;4.22;1.60;;;;;;;;;;4880093;29;20102;-80
2023/09/28 12:48:18;;;;;;;3.92;1.30;;;;;;;;;;4873757;29;20044;-81
2023/09/28 12:51:03;;;;;;;14.75;2.53;;;;;;;;;;4878163;29;20048;-81
2023/09/28 12:53:49;;;;;;;4.28;1.40;;;;;;;;;;4871142;29;20484;-80
2023/09/28 12:56:36;;;;;;;3.22;1.40;;;;;;;;;;4877858;29;20416;-80
2023/09/28 12:59:21;;;;;;;3.10;1.40;;;;;;;;;;4877216;29;20064;-81
2023/09/28 13:02:06;;;;;;;3.72;1.52;;;;;;;;;;4878501;29;20400;-81
2023/09/28 13:04:52;;;;;;;2.88;1.58;;;;;;;;;;4871899;29;20045;-81
2023/09/28 13:10:54;;;;;;;5.05;1.20;;;;;;;;;;4822487;29;20066;-74
2023/09/28 13:13:40;;;;;;;4.63;1.67;;;;;;;;;;4832219;29;20055;-74
2023/09/28 13:16:28;;;;;;;3.60;1.35;;;;;;;;;;4826051;29;20050;-76
2023/09/28 13:19:17;;;;;;;1.80;1.17;;;;;;;;;;4826059;29;20058;-74
2023/09/28 13:22:03;;;;;;;6.07;1.60;;;;;;;;;;4826029;29;20043;-73
2023/09/28 13:24:49;;;;;;;4.18;1.52;;;;;;;;;;4825567;29;20046;-75
2023/09/28 13:27:36;;;;;;;4.97;1.38;;;;;;;;;;4824445;29;20054;-74
2023/09/28 13:30:24;;;;;;;5.00;1.60;;;;;;;;;;4824447;29;20489;-76
2023/09/28 13:33:13;;;;;;;3.25;1.17;;;;;;;;;;4825325;29;20054;-76
2023/09/28 13:35:57;;;;;;;7.22;1.23;;;;;;;;;;4826574;29;20218;-78
2023/09/28 13:38:44;;;;;;;5.50;1.45;;;;;;;;;;4825548;29;20054;-76
2023/09/28 13:41:29;;;;;;;2.85;1.52;;;;;;;;;;4826236;29;20050;-76
2023/09/28 13:44:17;;;;;;;2.80;1.40;;;;;;;;;;4825625;29;20046;-73
2023/09/28 13:47:03;;;;;;;2.08;1.33;;;;;;;;;;4831485;29;20481;-75
2023/09/28 13:49:49;;;;;;;3.47;1.67;;;;;;;;;;4823363;29;20050;-74
2023/09/28 13:52:35;;;;;;;3.38;1.30;;;;;;;;;;4830531;29;20058;-75
2023/09/28 13:55:21;;;;;;;3.03;1.80;;;;;;;;;;4825238;29;20054;-76
2023/09/28 13:58:12;;;;;;;4.45;1.80;;;;;;;;;;4825515;29;20050;-76
2023/09/28 14:00:57;;;;;;;4.03;1.48;;;;;;;;;;4824483;29;20054;-76
2023/09/28 14:03:42;;;;;;;3.05;1.90;;;;;;;;;;4825246;29;20046;-76
2023/09/28 14:06:28;;;;;;;4.18;1.45;;;;;;;;;;4831346;29;20058;-76
2023/09/28 14:09:18;;;;;;;4.97;1.60;;;;;;;;;;4829730;29;20058;-76
2023/09/28 14:12:03;;;;;;;3.80;1.55;;;;;;;;;;4822811;29;20054;-76
2023/09/28 14:14:49;;;;;;;2.22;1.42;;;;;;;;;;4821864;29;20054;-75
2023/09/28 14:17:34;;;;;;;6.88;1.58;;;;;;;;;;4827803;29;20054;-74
2023/09/28 14:20:20;;;;;;;4.47;1.50;;;;;;;;;;4821983;29;20493;-74
2023/09/28 14:23:07;;;;;;;6.25;1.67;;;;;;;;;;4822020;29;20054;-75
2023/09/28 14:25:56;;;;;;;7.70;1.70;;;;;;;;;;4821359;29;20050;-75
2023/09/28 14:28:41;;;;;;;10.60;1.83;;;;;;;;;;4821915;29;20050;-74
2023/09/28 14:31:28;;;;;;;4.88;1.60;;;;;;;;;;4827317;29;20046;-75
2023/09/28 14:34:13;;;;;;;4.38;1.67;;;;;;;;;;4821579;29;20046;-76
2023/09/28 14:36:58;;;;;;;6.90;2.03;;;;;;;;;;4821611;29;20401;-77
2023/09/28 14:39:44;;;;;;;6.20;1.80;;;;;;;;;;4827416;29;20050;-76
2023/09/28 14:42:31;;;;;;;3.42;1.50;;;;;;;;;;4821625;29;20066;-77
2023/09/28 14:45:18;;;;;;;3.78;1.70;;;;;;;;;;4820704;29;20054;-77
2023/09/28 14:48:03;;;;;;;4.60;1.80;;;;;;;;;;4827420;29;20058;-78
2023/09/28 14:50:49;;;;;;;7.97;1.52;;;;;;;;;;4821460;29;20076;-77
2023/09/28 14:53:34;;;;;;;3.97;1.50;;;;;;;;;;4827360;29;20058;-78
2023/09/28 14:56:21;;;;;;;9.15;2.00;;;;;;;;;;4821028;29;20058;-77
2023/09/28 14:59:09;;;;;;;6.18;2.13;;;;;;;;;;4820565;29;20054;-77
2023/09/28 15:01:54;;;;;;;6.10;1.85;;;;;;;;;;4826921;29;20054;-76
2023/09/28 15:04:39;;;;;;;7.15;2.47;;;;;;;;;;4826709;29;20570;-77
2023/09/28 15:07:25;;;;;;;9.02;1.73;;;;;;;;;;4827020;29;20050;-76
2023/09/28 15:10:11;;;;;;;9.13;1.73;;;;;;;;;;4821154;29;20101;-76
2023/09/28 15:12:56;;;;;;;7.57;1.65;;;;;;;;;;4821384;29;20047;-76
2023/09/28 15:15:42;;;;;;;7.00;2.10;;;;;;;;;;4821464;29;20054;-75
2023/09/28 15:18:28;;;;;;;7.85;2.00;;;;;;;;;;4824813;29;20476;-76
2023/09/28 15:21:14;;;;;;;4.45;1.95;;;;;;;;;;4823690;29;20058;-77
2023/09/28 15:24:02;;;;;;;4.45;1.77;;;;;;;;;;4824746;29;20058;-76
2023/09/28 15:26:47;;;;;;;4.43;2.10;;;;;;;;;;4830629;29;20062;-76
2023/09/28 15:29:38;;;;;;;14.20;2.67;;;;;;;;;;4825055;29;20058;-76
2023/09/28 15:32:27;;;;;;;9.10;3.72;;;;;;;;;;4825802;29;20400;-76
2023/09/28 15:35:13;;;;;;;6.88;2.80;;;;;;;;;;4824008;29;20054;-78
2023/09/28 15:37:58;;;;;;;7.30;2.85;;;;;;;;;;4830543;29;20477;-76
2023/09/28 15:40:44;;;;;;;10.68;2.70;;;;;;;;;;4829930;29;20409;-75
2023/09/28 15:43:34;;;;;;;9.18;3.00;;;;;;;;;;4822792;29;20059;-75
2023/09/28 15:46:20;;;;;;;7.53;2.42;;;;;;;;;;4823828;29;20050;-77
2023/09/28 15:49:06;;;;;;;8.20;2.83;;;;;;;;;;4830297;29;20058;-75
2023/09/28 15:51:51;;;;;;;13.93;5.53;;;;;;;;;;4824113;29;20058;-75
2023/09/28 15:54:37;;;;;;;17.33;6.03;;;;;;;;;;4824010;29;20046;-75
2023/09/28 15:57:23;;;;;;;19.38;6.68;;;;;;;;;;4830000;29;20497;-75
2023/09/28 16:00:12;;;;;;;18.65;7.20;;;;;;;;;;4824186;29;20055;-75
2023/09/28 16:02:57;;;;;;;17.02;5.45;;;;;;;;;;4823848;29;20055;-76
2023/09/28 16:05:42;;;;;;;11.73;3.28;;;;;;;;;;4823669;29;20621;-76
2023/09/28 16:08:28;;;;;;;8.43;2.67;;;;;;;;;;4823941;29;20058;-76
2023/09/28 16:11:13;;;;;;;8.15;2.78;;;;;;;;;;4805254;29;20431;-73
2023/09/28 16:13:59;;;;;;;12.25;3.10;;;;;;;;;;4811426;29;20502;-74
2023/09/28 16:16:45;;;;;;;10.43;3.90;;;;;;;;;;4810461;29;20055;-72
2023/09/28 16:19:30;;;;;;;22.55;5.78;;;;;;;;;;4805371;29;20067;-73
2023/09/28 16:22:17;;;;;;;19.30;4.85;;;;;;;;;;4811584;29;20054;-72
2023/09/28 16:25:03;;;;;;;25.65;4.70;;;;;;;;;;4805419;29;20051;-73
2023/09/28 16:27:48;;;;;;;19.73;5.10;;;;;;;;;;4804930;29;20486;-74
2023/09/28 16:30:34;;;;;;;15.98;5.43;;;;;;;;;;4811382;29;20058;-73
2023/09/28 16:33:19;;;;;;;11.95;4.38;;;;;;;;;;4811405;29;20059;-73
2023/09/28 16:36:05;;;;;;;19.55;7.35;;;;;;;;;;4811408;29;20482;-74